Time;durP1;ratioP1;P1;durP2;ratioP2;P2;SDS_P1;SDS_P2;PMS_P1;PMS_P2;Temp;Humidity;BMP_temperature;BMP_pressure;BME280_temperature;BME280_humidity;BME280_pressure;Samples;Min_cycle;Max_cycle;Signal;HPM_P1;HPM_P2
2022/05/15 00:00:37;;;;;;;5.93;3.13;;;17.40;58.20;;;;;;5069384;28;20044;-75
2022/05/15 00:03:05;;;;;;;9.05;4.00;;;17.40;58.20;;;;;;5068680;28;20052;-73
2022/05/15 00:05:31;;;;;;;7.22;3.45;;;17.40;58.10;;;;;;5035962;28;20029;-73
2022/05/15 00:07:57;;;;;;;7.07;3.55;;;17.40;58.30;;;;;;5052824;28;20139;-75
2022/05/15 00:10:23;;;;;;;;;;;17.30;58.40;;;;;;5070001;28;20052;-73
2022/05/15 00:12:49;;;;;;;7.13;3.75;;;17.30;57.70;;;;;;5052783;28;20369;-73
2022/05/15 00:15:15;;;;;;;7.85;4.03;;;17.30;58.30;;;;;;5069277;28;20491;-75
2022/05/15 00:17:41;;;;;;;7.90;3.53;;;17.20;58.10;;;;;;5068428;28;20552;-76
2022/05/15 00:20:08;;;;;;;7.13;3.75;;;17.20;58.00;;;;;;5052672;28;20494;-72
2022/05/15 00:22:35;;;;;;;7.28;3.53;;;17.10;57.80;;;;;;5036083;28;20049;-76
2022/05/15 00:25:21;;;;;;;12.43;4.22;;;17.00;58.10;;;;;;5073163;28;20055;-76
2022/05/15 00:27:50;;;;;;;8.07;3.70;;;17.00;58.40;;;;;;5074122;28;20370;-75
2022/05/15 00:30:18;;;;;;;6.78;3.65;;;16.80;58.30;;;;;;5074864;28;20039;-75
2022/05/15 00:32:44;;;;;;;6.95;3.78;;;16.80;58.40;;;;;;5060332;28;20036;-75
2022/05/15 00:35:10;;;;;;;;;;;16.70;57.90;;;;;;5077708;28;20081;-73
2022/05/15 00:37:37;;;;;;;8.73;4.07;;;16.60;57.30;;;;;;5077920;28;19926;-76
2022/05/15 00:40:05;;;;;;;7.68;3.95;;;16.70;58.30;;;;;;5077616;28;20149;-72
2022/05/15 00:42:31;;;;;;;8.00;3.80;;;16.60;58.30;;;;;;5077541;28;20392;-72
2022/05/15 00:44:57;;;;;;;8.02;4.03;;;16.70;58.60;;;;;;5060581;28;20028;-75
2022/05/15 00:47:24;;;;;;;8.82;3.90;;;16.60;58.60;;;;;;5076399;28;20036;-76
2022/05/15 00:49:52;;;;;;;7.30;4.13;;;16.60;58.90;;;;;;5095531;28;20040;-76
2022/05/15 00:52:43;;;;;;;6.18;3.40;;;16.50;59.00;;;;;;5076978;28;20024;-73
2022/05/15 00:55:33;;;;;;;10.30;4.32;;;16.50;58.90;;;;;;5060198;28;20040;-76
2022/05/15 00:58:06;;;;;;;7.57;3.40;;;16.50;58.80;;;;;;5060948;28;20758;-72
2022/05/15 01:00:35;;;;;;;7.03;3.83;;;16.50;59.10;;;;;;5076933;28;20074;-72
2022/05/15 01:03:21;;;;;;;7.97;3.30;;;16.40;59.30;;;;;;5059709;28;20405;-75
2022/05/15 01:05:52;;;;;;;7.15;3.70;;;16.40;59.20;;;;;;5076850;28;20028;-72
2022/05/15 01:08:19;;;;;;;9.50;3.60;;;16.40;58.90;;;;;;5077063;28;20520;-72
2022/05/15 01:10:50;;;;;;;9.45;3.70;;;16.40;58.90;;;;;;5076697;28;20032;-73
2022/05/15 01:13:18;;;;;;;7.45;3.72;;;16.30;59.10;;;;;;5095073;28;20028;-76
2022/05/15 01:15:47;;;;;;;9.05;3.53;;;16.30;59.20;;;;;;5076493;28;20516;-76
2022/05/15 01:18:20;;;;;;;7.13;3.90;;;16.30;59.30;;;;;;5094144;28;20052;-72
2022/05/15 01:20:47;;;;;;;7.70;3.47;;;16.30;59.40;;;;;;5076730;28;20440;-75
2022/05/15 01:23:13;;;;;;;6.03;3.15;;;16.30;59.50;;;;;;5076974;28;20036;-72
2022/05/15 01:25:39;;;;;;;7.80;4.03;;;16.30;59.60;;;;;;5051203;28;20041;-72
2022/05/15 01:28:09;;;;;;;7.30;3.55;;;16.20;59.70;;;;;;5040059;28;20033;-72
2022/05/15 01:30:41;;;;;;;7.13;4.13;;;16.20;60.00;;;;;;5056334;28;20497;-75
2022/05/15 01:33:09;;;;;;;5.90;3.25;;;16.10;60.00;;;;;;5074143;28;20028;-75
2022/05/15 01:35:35;;;;;;;8.32;3.70;;;16.10;59.90;;;;;;5039463;28;20043;-72
2022/05/15 01:38:02;;;;;;;7.32;3.85;;;16.10;59.40;;;;;;5056669;28;20036;-72
2022/05/15 01:40:28;;;;;;;7.57;3.55;;;16.10;60.10;;;;;;5039400;28;20122;-72
2022/05/15 01:42:55;;;;;;;7.28;3.80;;;16.10;59.70;;;;;;5055795;28;20111;-72
2022/05/15 01:45:21;;;;;;;7.95;3.28;;;16.00;60.10;;;;;;5073978;28;20036;-72
2022/05/15 01:47:49;;;;;;;7.75;3.75;;;16.00;60.10;;;;;;5073781;28;20041;-75
2022/05/15 01:50:18;;;;;;;6.25;2.95;;;16.00;60.10;;;;;;5056107;28;20024;-75
2022/05/15 01:52:45;;;;;;;7.25;3.33;;;15.90;59.70;;;;;;5056447;28;20042;-72
2022/05/15 01:55:12;;;;;;;9.18;3.55;;;15.80;59.80;;;;;;5039012;28;20047;-75
2022/05/15 01:57:40;;;;;;;6.97;3.40;;;15.70;59.60;;;;;;5056253;28;20163;-75
2022/05/15 02:00:11;;;;;;;5.70;3.30;;;15.70;60.00;;;;;;5039280;28;20036;-75
2022/05/15 02:02:39;;;;;;;7.30;3.70;;;15.70;59.90;;;;;;5055460;28;20507;-72
2022/05/15 02:05:07;;;;;;;7.13;3.50;;;15.70;60.00;;;;;;5056040;28;20039;-75
2022/05/15 02:07:33;;;;;;;6.28;3.20;;;15.70;60.00;;;;;;5056099;28;20089;-73
2022/05/15 02:10:01;;;;;;;6.43;3.45;;;15.60;59.50;;;;;;5039209;28;20432;-72
2022/05/15 02:12:28;;;;;;;8.77;3.90;;;15.60;60.00;;;;;;5038780;28;20033;-72
2022/05/15 02:14:54;;;;;;;7.10;3.53;;;15.50;60.10;;;;;;5073644;28;20055;-75
2022/05/15 02:17:20;;;;;;;6.45;3.40;;;15.50;60.20;;;;;;5038618;28;20066;-75
2022/05/15 02:19:46;;;;;;;8.75;4.13;;;15.50;60.20;;;;;;5054628;28;20040;-72
2022/05/15 02:22:12;;;;;;;9.25;4.10;;;15.50;60.30;;;;;;5055500;28;20036;-72
2022/05/15 02:24:39;;;;;;;9.38;3.85;;;15.50;60.30;;;;;;5055563;28;20035;-72
2022/05/15 02:27:06;;;;;;;7.30;3.53;;;15.40;60.10;;;;;;5055313;28;20043;-72
2022/05/15 02:29:33;;;;;;;8.13;3.30;;;15.40;59.60;;;;;;5073416;28;20036;-73
2022/05/15 02:31:59;;;;;;;8.60;4.22;;;15.40;59.70;;;;;;5055377;28;20119;-72
2022/05/15 02:34:25;;;;;;;;;;;15.40;60.30;;;;;;5054994;28;20036;-72
2022/05/15 02:36:51;;;;;;;7.63;3.80;;;15.30;59.60;;;;;;5038497;28;19917;-72
2022/05/15 02:39:17;;;;;;;9.00;3.42;;;15.30;60.30;;;;;;5055331;28;20548;-72
2022/05/15 02:41:44;;;;;;;8.70;3.90;;;15.30;60.80;;;;;;5054880;28;20094;-75
2022/05/15 02:44:10;;;;;;;8.98;3.70;;;15.30;61.00;;;;;;5055228;28;20041;-75
2022/05/15 02:46:36;;;;;;;8.77;3.70;;;15.30;61.00;;;;;;5072770;28;20081;-72
2022/05/15 02:51:48;;;;;;;6.55;3.70;;;15.40;60.90;;;;;;5057531;28;20047;-75
2022/05/15 02:54:14;;;;;;;7.72;3.38;;;15.30;60.90;;;;;;5037803;28;20428;-72
2022/05/15 02:56:41;;;;;;;9.93;3.70;;;15.30;61.10;;;;;;5038098;28;20504;-75
2022/05/15 02:59:08;;;;;;;7.75;3.72;;;15.20;61.00;;;;;;5055004;28;20033;-75
2022/05/15 03:01:35;;;;;;;7.07;3.38;;;15.20;61.30;;;;;;5072347;28;20040;-75
2022/05/15 03:04:04;;;;;;;9.50;4.07;;;15.20;61.30;;;;;;5053984;28;20066;-73
2022/05/15 03:06:31;;;;;;;12.85;4.53;;;15.10;61.30;;;;;;5054619;28;20033;-76
2022/05/15 03:08:57;;;;;;;9.38;3.45;;;15.10;61.40;;;;;;5038140;28;20303;-75
2022/05/15 03:11:24;;;;;;;9.00;3.53;;;15.10;61.40;;;;;;5054586;28;20076;-75
2022/05/15 03:13:50;;;;;;;12.60;3.60;;;15.10;61.40;;;;;;5054773;28;20062;-73
2022/05/15 03:16:18;;;;;;;13.23;4.35;;;15.10;61.40;;;;;;5072341;28;20036;-72
2022/05/15 03:19:04;;;;;;;13.10;4.78;;;15.10;61.30;;;;;;5053867;28;20066;-73
2022/05/15 03:21:30;;;;;;;11.70;4.47;;;15.10;61.70;;;;;;5054355;28;20555;-75
2022/05/15 03:23:58;;;;;;;10.23;3.83;;;15.10;61.70;;;;;;5071207;28;20063;-75
2022/05/15 03:26:26;;;;;;;12.35;3.90;;;15.00;61.40;;;;;;5051879;28;20048;-73
2022/05/15 03:28:52;;;;;;;7.93;4.03;;;15.00;61.70;;;;;;5057932;28;20081;-72
2022/05/15 03:31:18;;;;;;;;;;;15.00;62.00;;;;;;5074823;28;20035;-75
2022/05/15 03:33:46;;;;;;;7.88;4.00;;;14.90;60.80;;;;;;5073598;28;20026;-73
2022/05/15 03:36:13;;;;;;;8.07;3.70;;;14.90;61.80;;;;;;5074415;28;20039;-75
2022/05/15 03:38:42;;;;;;;10.18;4.03;;;14.90;62.10;;;;;;5057670;28;20032;-75
2022/05/15 03:41:08;;;;;;;6.03;2.97;;;14.90;62.00;;;;;;5074250;28;20073;-72
2022/05/15 03:43:35;;;;;;;;;;;14.80;61.30;;;;;;5074964;28;20051;-75
2022/05/15 03:46:04;;;;;;;7.70;3.97;;;14.80;61.10;;;;;;5074194;28;19912;-73
2022/05/15 03:48:30;;;;;;;9.02;3.25;;;14.70;61.40;;;;;;5073607;28;20025;-75
2022/05/15 03:50:57;;;;;;;9.45;3.50;;;14.70;61.70;;;;;;5057276;28;20047;-75
2022/05/15 03:53:24;;;;;;;9.18;3.97;;;14.70;61.60;;;;;;5074305;28;20060;-75
2022/05/15 03:55:55;;;;;;;6.07;3.33;;;14.60;61.80;;;;;;5074090;28;20107;-74
2022/05/15 03:58:23;;;;;;;9.23;3.13;;;14.60;61.70;;;;;;5092263;28;20054;-75
2022/05/15 04:00:49;;;;;;;8.45;3.25;;;14.60;61.40;;;;;;5074051;28;20032;-73
2022/05/15 04:03:15;;;;;;;8.90;3.75;;;14.60;61.30;;;;;;5057666;28;20024;-72
2022/05/15 04:05:41;;;;;;;8.15;3.28;;;14.60;61.40;;;;;;5074565;28;20036;-73
2022/05/15 04:08:08;;;;;;;6.28;3.47;;;14.60;61.40;;;;;;5078357;28;20473;-73
2022/05/15 04:10:35;;;;;;;;;;;14.60;61.30;;;;;;5078235;28;20028;-75
2022/05/15 04:13:01;;;;;;;10.10;3.33;;;14.70;60.80;;;;;;5061761;28;20380;-75
2022/05/15 04:15:27;;;;;;;10.05;3.60;;;14.70;61.30;;;;;;5077531;28;20048;-72
2022/05/15 04:17:53;;;;;;;11.70;3.47;;;14.70;61.50;;;;;;5078290;28;20032;-72
2022/05/15 04:20:41;;;;;;;10.57;4.15;;;14.70;61.50;;;;;;5076396;28;20043;-75
2022/05/15 04:23:09;;;;;;;8.65;4.00;;;14.70;61.70;;;;;;5078101;28;20043;-73
2022/05/15 04:25:35;;;;;;;6.30;3.80;;;14.80;61.10;;;;;;5095469;28;20400;-75
2022/05/15 04:28:01;;;;;;;6.32;3.45;;;14.80;61.80;;;;;;5096375;28;20036;-72
2022/05/15 04:30:28;;;;;;;9.88;4.43;;;14.80;61.80;;;;;;5077369;28;20036;-72
2022/05/15 04:32:55;;;;;;;8.40;3.58;;;14.90;62.10;;;;;;5077884;28;20081;-74
2022/05/15 04:35:23;;;;;;;7.65;4.03;;;14.80;62.20;;;;;;5094563;28;20079;-72
2022/05/15 04:37:51;;;;;;;8.60;4.10;;;14.90;62.50;;;;;;5078064;28;20028;-75
2022/05/15 04:40:19;;;;;;;8.52;3.75;;;14.90;62.80;;;;;;5077330;28;20029;-72
2022/05/15 04:42:46;;;;;;;8.27;3.60;;;14.90;62.90;;;;;;5077479;28;20040;-75
2022/05/15 04:45:12;;;;;;;7.45;4.05;;;15.00;63.00;;;;;;5095398;28;20028;-72
2022/05/15 04:47:38;;;;;;;;;;;15.00;63.00;;;;;;5096443;28;20119;-73
2022/05/15 04:50:06;;;;;;;10.88;4.30;;;15.10;62.00;;;;;;5076535;28;20304;-72
2022/05/15 04:52:32;;;;;;;7.75;4.32;;;15.10;62.50;;;;;;5077253;28;20036;-76
2022/05/15 04:54:58;;;;;;;8.93;4.22;;;15.20;62.80;;;;;;5077384;28;20651;-75
2022/05/15 04:57:24;;;;;;;10.25;3.90;;;15.30;63.10;;;;;;5095353;28;20051;-75
2022/05/15 04:59:50;;;;;;;9.77;4.22;;;15.30;63.10;;;;;;5077470;28;20032;-72
2022/05/15 05:02:16;;;;;;;7.78;3.63;;;15.40;63.20;;;;;;5077065;28;20044;-75
2022/05/15 05:04:42;;;;;;;13.10;3.63;;;15.40;63.10;;;;;;5094530;28;20048;-73
2022/05/15 05:07:08;;;;;;;8.90;3.97;;;15.50;63.20;;;;;;5076659;28;20032;-72
2022/05/15 05:09:35;;;;;;;9.02;4.18;;;15.60;63.20;;;;;;5077081;28;20032;-75
2022/05/15 05:12:01;;;;;;;9.82;5.38;;;15.70;63.70;;;;;;5095079;28;20043;-72
2022/05/15 05:14:27;;;;;;;7.07;4.53;;;15.70;64.00;;;;;;5095159;28;20032;-75
2022/05/15 05:16:53;;;;;;;8.27;4.47;;;15.70;64.20;;;;;;5093890;28;20040;-76
2022/05/15 05:19:19;;;;;;;8.93;5.10;;;15.80;63.70;;;;;;5075796;28;20401;-72
2022/05/15 05:21:45;;;;;;;8.30;4.75;;;15.90;64.40;;;;;;5076658;28;20036;-73
2022/05/15 05:24:12;;;;;;;44.17;6.72;;;16.00;64.50;;;;;;5076951;28;20040;-72
2022/05/15 05:26:38;;;;;;;11.98;5.10;;;16.00;64.90;;;;;;5094427;28;20047;-73
2022/05/15 05:29:04;;;;;;;9.23;4.45;;;16.10;65.20;;;;;;5076809;28;20044;-75
2022/05/15 05:31:32;;;;;;;9.35;4.85;;;16.20;65.40;;;;;;5076545;28;20048;-76
2022/05/15 05:34:00;;;;;;;;;;;16.40;65.30;;;;;;5077352;28;20516;-76
2022/05/15 05:36:26;;;;;;;13.40;5.28;;;16.40;64.00;;;;;;5074700;28;19951;-75
2022/05/15 05:38:53;;;;;;;15.65;5.97;;;16.50;64.70;;;;;;5071433;28;20030;-72
2022/05/15 05:41:19;;;;;;;14.27;5.57;;;16.60;65.00;;;;;;5087024;28;20369;-72
2022/05/15 05:43:45;;;;;;;9.93;4.88;;;16.70;65.20;;;;;;5099245;28;20427;-72
2022/05/15 05:46:11;;;;;;;10.35;5.43;;;16.80;65.10;;;;;;5076034;28;20039;-73
2022/05/15 05:48:37;;;;;;;18.88;6.28;;;16.90;65.00;;;;;;5094257;28;20064;-76
2022/05/15 05:51:03;;;;;;;15.73;5.55;;;17.00;64.80;;;;;;5074741;28;20097;-76
2022/05/15 05:53:29;;;;;;;9.50;4.63;;;17.10;65.00;;;;;;5076391;28;20032;-77
2022/05/15 05:55:55;;;;;;;8.80;5.82;;;17.20;65.10;;;;;;5059142;28;20312;-73
2022/05/15 05:58:21;;;;;;;;;;;17.30;65.00;;;;;;5076838;28;20657;-76
2022/05/15 06:00:47;;;;;;;9.73;5.30;;;17.50;64.00;;;;;;5075686;28;19957;-76
2022/05/15 06:05:58;;;;;;;8.35;4.18;;;17.70;63.90;;;;;;5077556;28;20532;-73
2022/05/15 06:08:28;;;;;;;10.40;5.00;;;17.80;64.00;;;;;;5075962;28;20389;-72
2022/05/15 06:10:54;;;;;;;11.63;5.57;;;17.90;64.10;;;;;;5076100;28;20038;-72
2022/05/15 06:13:20;;;;;;;;;;;18.00;63.90;;;;;;5094488;28;20111;-75
2022/05/15 06:15:46;;;;;;;21.10;6.17;;;18.20;63.10;;;;;;5093474;28;19943;-72
2022/05/15 06:18:12;;;;;;;14.80;5.15;;;18.30;63.20;;;;;;5059194;28;20039;-72
2022/05/15 06:20:39;;;;;;;12.52;5.18;;;18.40;63.80;;;;;;5074153;28;20082;-72
2022/05/15 06:23:05;;;;;;;13.45;5.18;;;18.40;63.80;;;;;;5094280;28;20070;-72
2022/05/15 06:25:32;;;;;;;10.82;5.32;;;18.60;64.20;;;;;;5075007;28;20523;-75
2022/05/15 06:27:58;;;;;;;9.23;4.75;;;18.70;64.60;;;;;;5075197;28;20042;-72
2022/05/15 06:30:25;;;;;;;11.50;5.05;;;18.80;64.60;;;;;;5093328;28;20036;-72
2022/05/15 06:32:51;;;;;;;8.50;5.25;;;18.90;64.20;;;;;;5075778;28;20086;-72
2022/05/15 06:35:17;;;;;;;10.00;5.03;;;19.00;64.20;;;;;;5092403;28;20040;-72
2022/05/15 06:37:44;;;;;;;8.73;4.75;;;19.10;63.40;;;;;;5075198;28;20044;-72
2022/05/15 06:40:13;;;;;;;25.15;6.22;;;19.30;64.10;;;;;;5093077;28;20086;-74
2022/05/15 06:42:41;;;;;;;8.95;4.50;;;19.40;63.90;;;;;;5074792;28;20052;-72
2022/05/15 06:45:08;;;;;;;10.45;4.97;;;19.60;63.60;;;;;;5093109;28;20414;-72
2022/05/15 06:47:34;;;;;;;9.48;4.65;;;19.70;63.20;;;;;;5075138;28;20040;-72
2022/05/15 06:50:01;;;;;;;10.35;4.78;;;20.00;63.10;;;;;;5074185;28;20120;-72
2022/05/15 06:52:28;;;;;;;9.93;5.05;;;20.20;61.90;;;;;;5074223;28;20048;-76
2022/05/15 06:54:54;;;;;;;11.88;4.93;;;20.40;62.20;;;;;;5075110;28;20036;-72
2022/05/15 06:57:31;;;;;;;9.70;4.53;;;20.60;61.30;;;;;;5074614;28;20048;-72
2022/05/15 07:00:00;;;;;;;6.80;4.10;;;20.80;61.30;;;;;;5093260;28;20050;-72
2022/05/15 07:02:28;;;;;;;9.73;4.43;;;21.00;60.70;;;;;;5074645;28;20089;-72
2022/05/15 07:04:55;;;;;;;8.23;4.85;;;21.30;60.30;;;;;;5074786;28;20059;-72
2022/05/15 07:07:22;;;;;;;9.27;4.47;;;21.40;59.70;;;;;;5074083;28;20070;-75
2022/05/15 07:09:48;;;;;;;17.00;5.15;;;21.70;59.70;;;;;;5058189;28;20020;-76
2022/05/15 07:12:15;;;;;;;;;;;21.90;59.10;;;;;;5075088;28;20345;-76
2022/05/15 07:14:41;;;;;;;9.37;5.10;;;22.20;59.20;;;;;;5072569;28;19961;-76
2022/05/15 07:17:07;;;;;;;10.05;4.65;;;22.40;57.40;;;;;;5074188;28;20039;-72
2022/05/15 07:19:33;;;;;;;;;;;22.50;57.70;;;;;;5074565;28;20039;-76
2022/05/15 07:22:00;;;;;;;16.67;10.55;;;22.70;58.40;;;;;;5073845;28;19919;-73
2022/05/15 07:24:26;;;;;;;;;;;22.60;56.60;;;;;;5075490;28;20081;-77
2022/05/15 07:26:52;;;;;;;10.02;4.57;;;22.70;57.80;;;;;;5074184;28;19919;-77
2022/05/15 07:29:24;;;;;;;10.52;4.70;;;22.80;56.70;;;;;;5092689;28;20035;-76
2022/05/15 07:31:54;;;;;;;7.03;4.00;;;22.80;56.50;;;;;;5092543;28;20059;-77
2022/05/15 07:34:21;;;;;;;7.28;3.83;;;22.90;56.00;;;;;;5074658;28;20415;-72
2022/05/15 07:36:50;;;;;;;9.45;4.53;;;23.00;55.80;;;;;;5091322;28;20040;-72
2022/05/15 07:39:20;;;;;;;8.95;4.10;;;23.10;55.40;;;;;;5092785;28;20115;-72
2022/05/15 07:41:48;;;;;;;13.82;4.78;;;23.10;54.70;;;;;;5091507;28;20111;-76
2022/05/15 07:44:16;;;;;;;9.13;4.57;;;23.20;54.30;;;;;;5073955;28;20481;-77
2022/05/15 07:46:43;;;;;;;9.05;4.50;;;23.20;53.20;;;;;;5057315;28;20032;-72
2022/05/15 07:49:10;;;;;;;7.90;4.82;;;23.40;52.70;;;;;;5074688;28;20262;-76
2022/05/15 07:51:38;;;;;;;14.02;4.65;;;23.40;52.70;;;;;;5073159;28;20105;-77
2022/05/15 07:54:04;;;;;;;16.58;8.45;;;23.60;51.70;;;;;;5074357;28;20444;-72
2022/05/15 07:56:30;;;;;;;9.60;4.57;;;23.60;50.60;;;;;;5057216;28;20081;-77
2022/05/15 07:58:56;;;;;;;;;;;23.70;50.50;;;;;;5092997;28;20039;-72
2022/05/15 08:01:22;;;;;;;6.90;3.78;;;23.80;51.50;;;;;;5091898;28;19919;-72
2022/05/15 08:03:48;;;;;;;;;;;23.90;49.30;;;;;;5074692;28;20028;-72
2022/05/15 08:09:04;;;;;;;10.88;4.57;;;24.00;48.90;;;;;;5077187;28;20046;-76
2022/05/15 08:11:31;;;;;;;8.32;4.07;;;24.10;48.80;;;;;;5056961;28;20056;-76
2022/05/15 08:16:45;;;;;;;8.30;4.28;;;24.40;47.90;;;;;;5074563;28;20508;-76
2022/05/15 08:24:45;;;;;;;7.55;3.45;;;25.40;46.20;;;;;;5075604;28;20059;-72
2022/05/15 08:27:11;;;;;;;9.32;3.78;;;25.90;44.70;;;;;;5091846;28;20082;-75
2022/05/15 08:29:39;;;;;;;7.45;3.38;;;26.40;43.70;;;;;;5073848;28;20396;-72
2022/05/15 08:32:07;;;;;;;6.18;3.45;;;26.90;42.50;;;;;;5073818;28;20036;-76
2022/05/15 08:34:34;;;;;;;6.95;3.47;;;27.50;41.10;;;;;;5073742;28;20032;-73
2022/05/15 08:37:01;;;;;;;12.82;3.78;;;28.10;40.00;;;;;;5072663;28;20067;-76
2022/05/15 08:39:29;;;;;;;10.90;3.65;;;28.70;39.40;;;;;;5073970;28;20028;-72
2022/05/15 08:42:54;;;;;;;6.00;3.55;;;29.20;39.00;;;;;;5091830;28;20093;-73
2022/05/15 08:45:43;;;;;;;5.85;3.67;;;30.00;38.50;;;;;;5091609;28;20443;-72
2022/05/15 08:48:12;;;;;;;6.32;3.05;;;30.70;37.50;;;;;;5073945;28;20107;-76
2022/05/15 08:50:50;;;;;;;5.85;2.83;;;31.30;34.30;;;;;;5073446;28;20028;-76
2022/05/15 08:53:29;;;;;;;9.52;3.22;;;32.00;34.00;;;;;;5094198;28;20040;-76
2022/05/15 08:55:59;;;;;;;6.97;3.78;;;32.80;32.70;;;;;;5076865;28;20031;-72
2022/05/15 08:58:55;;;;;;;6.60;3.47;;;33.60;31.40;;;;;;5060721;28;20039;-76
2022/05/15 09:01:30;;;;;;;6.40;2.60;;;34.60;32.10;;;;;;5076856;28;20036;-73
2022/05/15 09:03:59;;;;;;;8.82;3.10;;;35.40;28.80;;;;;;5095393;28;20055;-76
2022/05/15 09:07:21;;;;;;;4.50;2.65;;;36.20;28.00;;;;;;5076062;28;20044;-76
2022/05/15 09:10:43;;;;;;;25.65;6.10;;;37.00;28.10;;;;;;5075044;28;20033;-73
2022/05/15 09:13:41;;;;;;;6.63;2.60;;;38.00;27.00;;;;;;5075579;28;20049;-72
2022/05/15 09:16:25;;;;;;;12.55;3.63;;;38.90;24.90;;;;;;5039952;28;20065;-75
2022/05/15 09:18:59;;;;;;;9.70;2.88;;;39.50;24.20;;;;;;5057121;28;20108;-76
2022/05/15 09:21:26;;;;;;;13.48;2.53;;;39.90;21.20;;;;;;5059016;28;20040;-73
2022/05/15 09:23:54;;;;;;;5.32;2.50;;;40.10;20.60;;;;;;5094751;28;20481;-76
2022/05/15 09:26:44;;;;;;;4.38;2.50;;;40.30;20.30;;;;;;5076195;28;20527;-73
2022/05/15 09:29:34;;;;;;;8.63;3.40;;;40.70;19.90;;;;;;5095030;28;20039;-76
2022/05/15 09:32:03;;;;;;;7.72;2.60;;;41.50;20.10;;;;;;5076617;28;20036;-75
2022/05/15 09:34:32;;;;;;;19.85;3.22;;;42.20;19.10;;;;;;5060119;28;20484;-73
2022/05/15 09:40:08;;;;;;;9.02;2.63;;;43.10;18.00;;;;;;5076132;28;20078;-76
2022/05/15 09:46:02;;;;;;;7.13;2.50;;;43.80;16.50;;;;;;5060229;28;20080;-73
2022/05/15 09:48:38;;;;;;;5.72;3.15;;;44.20;17.00;;;;;;5087588;28;20051;-73
2022/05/15 09:51:11;;;;;;;5.53;2.83;;;44.40;15.70;;;;;;5076096;28;20107;-77
2022/05/15 09:53:56;;;;;;;6.28;2.42;;;44.60;15.30;;;;;;5075375;28;20056;-76
2022/05/15 09:56:21;;;;;;;6.70;2.63;;;45.20;15.00;;;;;;5093874;28;20384;-76
2022/05/15 09:59:11;;;;;;;5.10;3.15;;;45.50;14.90;;;;;;5094411;28;20028;-76
2022/05/15 10:01:49;;;;;;;10.48;2.88;;;45.90;14.10;;;;;;5075572;28;20036;-73
2022/05/15 10:04:53;;;;;;;6.30;3.38;;;46.60;13.90;;;;;;5075593;28;20024;-75
2022/05/15 10:11:06;;;;;;;7.13;3.13;;;47.20;13.20;;;;;;5078884;28;20040;-76
2022/05/15 10:13:54;;;;;;;5.05;2.70;;;47.00;13.90;;;;;;5093521;28;20033;-76
2022/05/15 10:16:34;;;;;;;8.15;3.20;;;47.60;13.30;;;;;;5077528;28;20045;-73
2022/05/15 10:19:57;;;;;;;7.78;2.97;;;48.40;13.20;;;;;;5072514;28;20056;-76
2022/05/15 10:23:12;;;;;;;6.43;3.25;;;49.10;13.70;;;;;;5061288;28;20047;-72
2022/05/15 10:26:01;;;;;;;5.45;3.25;;;49.80;12.80;;;;;;5075143;28;20485;-74
2022/05/15 10:29:02;;;;;;;5.18;3.10;;;50.40;12.20;;;;;;5075665;28;20036;-76
2022/05/15 10:31:58;;;;;;;5.35;3.17;;;50.70;12.10;;;;;;5093232;28;20044;-76
2022/05/15 10:37:14;;;;;;;5.55;3.28;;;51.30;11.20;;;;;;5061455;28;20389;-76
2022/05/15 10:40:18;;;;;;;5.28;3.58;;;51.70;10.90;;;;;;5058347;28;20035;-73
2022/05/15 10:42:47;;;;;;;5.88;3.25;;;52.00;11.30;;;;;;5075485;28;20036;-74
2022/05/15 10:45:41;;;;;;;8.20;3.25;;;52.40;10.50;;;;;;5058238;28;20542;-73
2022/05/15 10:49:03;;;;;;;5.57;3.08;;;52.70;10.50;;;;;;5055152;28;20044;-73
2022/05/15 10:52:10;;;;;;;5.90;3.55;;;52.80;10.30;;;;;;5072644;28;20067;-75
2022/05/15 10:58:02;;;;;;;5.40;3.95;;;53.50;9.90;;;;;;5058010;28;20304;-76
2022/05/15 11:00:37;;;;;;;8.52;3.90;;;53.50;9.70;;;;;;5038225;28;20432;-76
2022/05/15 11:03:44;;;;;;;5.18;3.47;;;53.80;9.70;;;;;;5073392;28;20044;-76
2022/05/15 11:06:37;;;;;;;5.68;3.70;;;53.80;9.10;;;;;;5072472;28;20032;-73
2022/05/15 11:09:45;;;;;;;5.03;3.65;;;54.50;9.60;;;;;;5071712;28;20556;-76
2022/05/15 11:12:34;;;;;;;4.90;4.35;;;54.90;9.00;;;;;;5074923;28;20107;-73
2022/05/15 11:15:56;;;;;;;6.68;3.80;;;54.90;8.50;;;;;;5092086;28;20036;-75
2022/05/15 11:19:19;;;;;;;4.93;3.63;;;54.50;8.60;;;;;;5092903;28;20036;-73
2022/05/15 11:22:10;;;;;;;14.60;4.05;;;55.00;9.30;;;;;;5092674;28;20041;-73
2022/05/15 11:25:11;;;;;;;4.60;3.72;;;55.00;9.00;;;;;;5074096;28;20047;-73
2022/05/15 11:28:03;;;;;;;4.78;4.10;;;55.70;8.50;;;;;;5057846;28;20039;-76
2022/05/15 11:31:12;;;;;;;4.78;3.58;;;56.00;8.10;;;;;;5092277;28;20020;-73
2022/05/15 11:34:02;;;;;;;6.53;4.57;;;56.30;7.90;;;;;;5092713;28;20043;-76
2022/05/15 11:36:48;;;;;;;8.98;5.10;;;56.30;8.30;;;;;;5074489;28;20048;-76
2022/05/15 11:39:14;;;;;;;6.47;4.03;;;56.40;8.10;;;;;;5091809;28;20040;-73
2022/05/15 11:42:09;;;;;;;6.30;4.57;;;56.80;7.90;;;;;;5092389;28;20097;-75
2022/05/15 11:45:04;;;;;;;5.32;4.82;;;56.90;7.80;;;;;;5075879;28;20028;-76
2022/05/15 11:47:34;;;;;;;;;;;57.30;7.50;;;;;;5082429;28;20390;-74
2022/05/15 11:50:30;;;;;;;19.50;6.03;;;57.50;8.50;;;;;;5074878;28;19912;-76
2022/05/15 11:52:56;;;;;;;6.47;4.75;;;57.40;7.90;;;;;;5056830;28;20127;-75
2022/05/15 11:55:59;;;;;;;8.65;5.32;;;57.10;7.50;;;;;;5091850;28;20389;-76
2022/05/15 11:58:44;;;;;;;8.63;5.55;;;57.00;7.80;;;;;;5074285;28;20040;-76
2022/05/15 12:01:49;;;;;;;11.75;5.10;;;56.80;7.00;;;;;;5073938;28;20028;-74
2022/05/15 12:04:33;;;;;;;;;;;56.70;7.70;;;;;;5075132;28;20081;-74
2022/05/15 12:06:59;;;;;;;9.73;4.75;;;57.10;8.40;;;;;;5092438;28;20357;-76
2022/05/15 12:09:41;;;;;;;8.40;4.47;;;57.50;7.80;;;;;;5091545;28;20024;-74
2022/05/15 12:12:30;;;;;;;7.95;5.40;;;57.80;7.50;;;;;;5073942;28;20432;-74
2022/05/15 12:15:16;;;;;;;8.10;5.75;;;58.10;7.80;;;;;;5074222;28;20078;-73
2022/05/15 12:17:56;;;;;;;6.78;5.72;;;58.10;7.70;;;;;;5092649;28;20032;-73
2022/05/15 12:20:31;;;;;;;6.20;5.60;;;57.80;7.50;;;;;;5073917;28;20032;-75
2022/05/15 12:23:20;;;;;;;7.10;6.50;;;58.10;7.40;;;;;;5073349;28;20554;-76
2022/05/15 12:26:24;;;;;;;8.88;6.28;;;57.80;7.30;;;;;;5073468;28;20062;-73
2022/05/15 12:29:46;;;;;;;7.47;6.60;;;58.20;7.70;;;;;;5096137;28;20051;-76
2022/05/15 12:32:46;;;;;;;7.18;6.65;;;58.40;7.60;;;;;;5095870;28;20064;-74
2022/05/15 12:35:38;;;;;;;7.35;6.75;;;58.70;7.60;;;;;;5060561;28;20032;-76
2022/05/15 12:38:17;;;;;;;8.98;6.65;;;58.60;7.20;;;;;;5095444;28;20070;-75
2022/05/15 12:41:03;;;;;;;7.40;6.53;;;58.60;7.10;;;;;;5077475;28;20393;-73
2022/05/15 12:43:31;;;;;;;7.07;6.47;;;59.00;7.80;;;;;;5060905;28;20078;-75
2022/05/15 12:45:58;;;;;;;7.70;7.10;;;58.90;7.10;;;;;;5077252;28;20031;-73
2022/05/15 12:48:27;;;;;;;8.30;7.63;;;58.90;6.50;;;;;;5077322;28;20036;-74
2022/05/15 12:51:14;;;;;;;7.75;7.05;;;59.00;7.30;;;;;;5095051;28;20032;-75
2022/05/15 12:54:04;;;;;;;8.23;7.63;;;59.10;7.70;;;;;;5076458;28;20039;-75
2022/05/15 12:56:58;;;;;;;7.93;7.32;;;59.10;7.30;;;;;;5095216;28;20148;-73
2022/05/15 12:59:27;;;;;;;8.15;7.55;;;59.10;7.30;;;;;;5077284;28;20031;-74
2022/05/15 13:01:53;;;;;;;8.52;6.57;;;58.70;6.60;;;;;;5076954;28;20032;-75
2022/05/15 13:04:59;;;;;;;7.50;6.90;;;58.50;6.80;;;;;;5077255;28;20112;-74
2022/05/15 13:07:36;;;;;;;7.68;7.07;;;59.00;7.60;;;;;;5095222;28;20044;-74
2022/05/15 13:10:24;;;;;;;8.60;7.80;;;59.20;7.40;;;;;;5059448;28;20492;-76
2022/05/15 13:13:48;;;;;;;7.22;6.53;;;59.00;7.90;;;;;;5077229;28;20036;-72
2022/05/15 13:16:39;;;;;;;9.20;5.50;;;58.90;7.10;;;;;;5094753;28;20067;-75
2022/05/15 13:19:13;;;;;;;9.35;6.45;;;58.70;7.50;;;;;;5077411;28;20085;-74
2022/05/15 13:21:42;;;;;;;7.28;6.43;;;58.90;7.30;;;;;;5076707;28;20119;-75
2022/05/15 13:24:10;;;;;;;8.60;6.25;;;58.50;7.20;;;;;;5094015;28;20040;-73
2022/05/15 13:26:41;;;;;;;25.73;7.70;;;58.60;7.70;;;;;;5076554;28;20135;-73
2022/05/15 13:29:11;;;;;;;8.07;5.95;;;58.40;7.70;;;;;;5094979;28;20028;-75
2022/05/15 13:31:38;;;;;;;6.22;5.63;;;58.00;7.90;;;;;;5073908;28;20075;-75
2022/05/15 13:34:10;;;;;;;5.93;5.43;;;57.90;7.40;;;;;;5076937;28;20036;-74
2022/05/15 13:36:36;;;;;;;6.85;5.00;;;58.00;7.70;;;;;;5059383;28;20059;-73
2022/05/15 13:44:36;;;;;;;5.80;5.20;;;57.70;7.30;;;;;;5079316;28;20039;-75
2022/05/15 13:47:25;;;;;;;15.63;5.28;;;57.50;7.40;;;;;;5055799;28;20028;-75
2022/05/15 13:49:53;;;;;;;5.60;5.10;;;57.40;7.50;;;;;;5074489;28;20029;-73
2022/05/15 13:52:39;;;;;;;8.15;5.10;;;57.40;7.30;;;;;;5056135;28;20039;-73
2022/05/15 13:55:38;;;;;;;7.20;5.40;;;57.20;7.70;;;;;;5070117;28;20032;-73
2022/05/15 13:58:04;;;;;;;6.15;5.10;;;57.20;7.80;;;;;;5075556;28;20044;-73
2022/05/15 14:00:36;;;;;;;4.95;4.45;;;56.90;7.20;;;;;;5075869;28;20036;-75
2022/05/15 14:03:06;;;;;;;9.00;4.85;;;56.60;7.30;;;;;;5076799;28;20127;-75